createdAt,value
2023-02-11T00:00:27.748Z,103313.84
2023-02-11T00:02:55.518Z,103315.63
2023-02-11T00:05:23.231Z,103315.63
2023-02-11T00:07:51.017Z,103315.63
2023-02-11T00:10:18.703Z,103312.09
2023-02-11T00:12:46.400Z,103312.97
2023-02-11T00:15:14.088Z,103319.25
2023-02-11T00:17:43.155Z,103317.53
2023-02-11T00:20:11.335Z,103311.28
2023-02-11T00:22:39.110Z,103310.41
2023-02-11T00:25:07.281Z,103301.50
2023-02-11T00:27:37.784Z,103302.38
2023-02-11T00:30:05.727Z,103296.19
2023-02-11T00:32:33.788Z,103299.88
2023-02-11T00:35:02.914Z,103306.06
2023-02-11T00:37:30.581Z,103316.78
2023-02-11T00:39:58.292Z,103303.38
2023-02-11T00:42:25.948Z,103321.28
2023-02-11T00:44:53.685Z,103334.69
2023-02-11T00:47:21.405Z,103328.44
2023-02-11T00:49:49.185Z,103336.50
2023-02-11T00:52:18.264Z,103334.69
2023-02-11T00:54:46.131Z,103326.69
2023-02-11T00:57:13.824Z,103322.22
2023-02-11T00:59:41.652Z,103316.88
2023-02-11T01:02:09.509Z,103328.53
2023-02-11T01:04:37.273Z,103332.13
2023-02-11T01:07:09.583Z,103321.34
2023-02-11T01:09:40.188Z,103310.69
2023-02-11T01:12:08.101Z,103301.72
2023-02-11T01:14:35.869Z,103296.34
2023-02-11T01:17:05.418Z,103300.78
2023-02-11T01:19:33.211Z,103290.97
2023-02-11T01:22:00.935Z,103282.06
2023-02-11T01:24:28.841Z,103283.88
2023-02-11T01:26:58.045Z,103289.19
2023-02-11T01:29:26.282Z,103269.59
2023-02-11T01:31:54.096Z,103270.47
2023-02-11T01:34:21.886Z,103272.34
2023-02-11T01:36:49.568Z,103268.78
2023-02-11T01:39:17.330Z,103280.44
2023-02-11T01:41:45.025Z,103285.81
2023-02-11T01:44:28.079Z,103281.31
2023-02-11T01:46:55.916Z,103286.69
2023-02-11T01:49:28.064Z,103297.47
2023-02-11T01:51:57.606Z,103315.38
2023-02-11T01:54:44.857Z,103312.69
2023-02-11T01:57:26.133Z,103313.56
2023-02-11T01:59:58.766Z,103304.66
2023-02-11T02:02:28.680Z,103296.59
2023-02-11T02:04:59.835Z,103285.91
2023-02-11T02:07:31.660Z,103303.78
2023-02-11T02:10:01.708Z,103302.91
2023-02-11T02:12:29.463Z,103300.22
2023-02-11T02:17:55.276Z,103291.31
2023-02-11T02:20:38.758Z,103276.09
2023-02-11T02:23:14.998Z,103270.78
2023-02-11T02:25:56.335Z,103275.22
2023-02-11T02:28:36.731Z,103268.13
2023-02-11T02:31:27.735Z,103268.13
2023-02-11T02:33:58.989Z,103263.63
2023-02-11T02:36:33.102Z,103262.75
2023-02-11T02:39:02.856Z,103258.31
2023-02-11T02:41:31.979Z,103261.00
2023-02-11T02:43:59.745Z,103266.38
2023-02-11T02:46:31.093Z,103260.03
2023-02-11T02:49:00.593Z,103248.38
2023-02-11T02:51:43.718Z,103249.28
2023-02-11T02:54:28.073Z,103243.91
2023-02-11T02:56:57.258Z,103248.34
2023-02-11T02:59:32.417Z,103245.69
2023-02-11T03:02:07.693Z,103245.75
2023-02-11T03:04:43.593Z,103249.34
2023-02-11T03:07:14.024Z,103253.84
2023-02-11T03:09:44.301Z,103248.50
2023-02-11T03:12:13.657Z,103257.41
2023-02-11T03:14:44.810Z,103247.63
2023-02-11T03:17:12.766Z,103248.50
2023-02-11T03:19:43.454Z,103249.44
2023-02-11T03:22:13.188Z,103245.00
2023-02-11T03:24:42.382Z,103245.88
2023-02-11T03:27:12.064Z,103244.13
2023-02-11T03:29:42.246Z,103247.69
2023-02-11T03:32:16.293Z,103244.13
2023-02-11T03:34:48.796Z,103245.94
2023-02-11T03:37:19.169Z,103245.06
2023-02-11T03:39:50.005Z,103234.41
2023-02-11T03:42:17.902Z,103231.72
2023-02-11T03:44:48.932Z,103219.19
2023-02-11T03:47:18.537Z,103224.56
2023-02-11T03:49:49.024Z,103225.44
2023-02-11T03:52:19.006Z,103216.53
2023-02-11T03:54:47.414Z,103223.69
2023-02-11T03:57:17.816Z,103221.06
2023-02-11T03:59:52.266Z,103224.63
2023-02-11T04:02:20.354Z,103246.06
2023-02-11T04:04:49.512Z,103247.88
2023-02-11T04:07:17.482Z,103249.66
2023-02-11T04:09:45.229Z,103248.78
2023-02-11T04:12:12.944Z,103248.78
2023-02-11T04:14:40.760Z,103254.13
2023-02-11T04:17:08.564Z,103253.28
2023-02-11T04:19:39.505Z,103261.31
2023-02-11T04:22:08.855Z,103254.16
2023-02-11T04:24:36.639Z,103265.81
2023-02-11T04:27:04.459Z,103261.38
2023-02-11T04:29:32.160Z,103265.81
2023-02-11T04:32:00.055Z,103251.53
2023-02-11T04:34:28.162Z,103253.34
2023-02-11T04:36:55.923Z,103262.25
2023-02-11T04:39:24.994Z,103245.38
2023-02-11T04:41:55.726Z,103255.16
2023-02-11T04:44:23.486Z,103265.06
2023-02-11T04:46:51.207Z,103265.06
2023-02-11T04:49:19.160Z,103257.91
2023-02-11T04:51:49.266Z,103254.34
2023-02-11T04:54:17.761Z,103260.59
2023-02-11T04:56:47.014Z,103254.41
2023-02-11T04:59:14.788Z,103260.59
2023-02-11T05:01:42.543Z,103265.94
2023-02-11T05:04:10.341Z,103258.88
2023-02-11T05:06:39.379Z,103251.66
2023-02-11T05:09:07.321Z,103240.13
2023-02-11T05:11:36.650Z,103246.38
2023-02-11T05:14:05.941Z,103251.72
2023-02-11T05:16:34.058Z,103261.59
2023-02-11T05:19:01.948Z,103256.22
2023-02-11T05:21:29.946Z,103257.97
2023-02-11T05:23:57.747Z,103262.50
2023-02-11T05:26:28.253Z,103265.19
2023-02-11T05:28:55.990Z,103269.69
2023-02-11T05:31:27.745Z,103260.75
2023-02-11T05:33:55.485Z,103262.56
2023-02-11T05:36:23.255Z,103266.13
2023-02-11T05:38:51.741Z,103265.25
2023-02-11T05:41:19.540Z,103263.50
2023-02-11T05:43:48.876Z,103267.13
2023-02-11T05:46:16.661Z,103274.22
2023-02-11T05:48:45.750Z,103273.34
2023-02-11T05:51:13.469Z,103268.88
2023-02-11T05:53:41.144Z,103268.91
2023-02-11T05:56:10.295Z,103264.44
2023-02-11T05:58:38.727Z,103268.00
2023-02-11T06:01:06.440Z,103272.50
2023-02-11T06:03:34.183Z,103281.47
2023-02-11T06:06:03.318Z,103276.09
2023-02-11T06:08:31.003Z,103272.53
2023-02-11T06:10:58.716Z,103277.91
2023-02-11T06:13:26.484Z,103277.91
2023-02-11T06:15:57.536Z,103266.31
2023-02-11T06:18:25.390Z,103269.94
2023-02-11T06:20:53.130Z,103270.81
2023-02-11T06:23:22.706Z,103262.81
2023-02-11T06:25:50.904Z,103267.25
2023-02-11T06:28:18.848Z,103264.63
2023-02-11T06:30:46.762Z,103266.44
2023-02-11T06:33:14.461Z,103259.28
2023-02-11T06:35:42.211Z,103267.31
2023-02-11T06:38:09.929Z,103267.31
2023-02-11T06:40:42.039Z,103275.34
2023-02-11T06:43:09.863Z,103278.97
2023-02-11T06:45:37.579Z,103280.72
2023-02-11T06:48:05.425Z,103281.66
2023-02-11T06:50:33.168Z,103269.19
2023-02-11T06:53:00.928Z,103277.22
2023-02-11T06:55:28.736Z,103276.34
2023-02-11T06:57:57.793Z,103272.78
2023-02-11T07:00:26.576Z,103276.34
2023-02-11T07:02:54.320Z,103281.72
2023-02-11T07:05:22.261Z,103279.03
2023-02-11T07:07:49.895Z,103287.06
2023-02-11T07:10:20.537Z,103280.88
2023-02-11T07:12:48.294Z,103279.09
2023-02-11T07:15:17.414Z,103282.69
2023-02-11T07:17:45.158Z,103279.09
2023-02-11T07:20:14.717Z,103286.25
2023-02-11T07:22:42.523Z,103293.41
2023-02-11T07:25:10.260Z,103304.13
2023-02-11T07:27:38.042Z,103293.41
2023-02-11T07:30:07.373Z,103299.72
2023-02-11T07:32:36.669Z,103304.19
2023-02-11T07:35:05.096Z,103310.41
2023-02-11T07:37:34.416Z,103303.31
2023-02-11T07:40:02.111Z,103303.31
2023-02-11T07:42:29.781Z,103307.75
2023-02-11T07:44:57.525Z,103313.16
2023-02-11T07:47:25.235Z,103310.41
2023-02-11T07:49:56.544Z,103306.00
2023-02-11T07:52:24.551Z,103296.16
2023-02-11T07:54:52.269Z,103307.78
2023-02-11T07:57:19.988Z,103301.53
2023-02-11T07:59:47.770Z,103308.69
2023-02-11T08:02:15.561Z,103307.81
2023-02-11T08:04:43.319Z,103314.97
2023-02-11T08:07:15.365Z,103314.97
2023-02-11T08:09:43.179Z,103308.72
2023-02-11T08:12:10.876Z,103313.22
2023-02-11T08:14:38.780Z,103304.31
2023-02-11T08:17:06.629Z,103306.97
2023-02-11T08:19:35.340Z,103306.97
2023-02-11T08:22:03.293Z,103298.94
2023-02-11T08:24:32.462Z,103302.50
2023-02-11T08:27:00.166Z,103306.13
2023-02-11T08:29:27.914Z,103312.34
2023-02-11T08:31:55.633Z,103314.16
2023-02-11T08:34:23.434Z,103309.72
2023-02-11T08:36:51.258Z,103310.56
2023-02-11T08:39:20.926Z,103320.44
2023-02-11T08:41:50.825Z,103313.34
2023-02-11T08:44:18.927Z,103316.91
2023-02-11T08:46:46.721Z,103316.94
2023-02-11T08:49:15.030Z,103327.59
2023-02-11T08:51:43.064Z,103324.03
2023-02-11T08:54:11.106Z,103328.50
2023-02-11T08:56:39.955Z,103337.44
2023-02-11T08:59:09.559Z,103335.63
2023-02-11T09:01:37.413Z,103342.78
2023-02-11T09:04:05.490Z,103343.66
2023-02-11T09:06:33.168Z,103351.69
2023-02-11T09:09:00.946Z,103354.38
2023-02-11T09:11:29.768Z,103345.47
2023-02-11T09:14:00.142Z,103343.66
2023-02-11T09:16:30.295Z,103342.78
2023-02-11T09:18:58.512Z,103352.56
2023-02-11T09:21:26.650Z,103357.06
2023-02-11T09:23:57.256Z,103358.81
2023-02-11T09:26:25.864Z,103361.50
2023-02-11T09:28:53.578Z,103371.31
2023-02-11T09:31:22.710Z,103373.06
2023-02-11T09:33:52.904Z,103379.31
2023-02-11T09:36:21.679Z,103373.06
2023-02-11T09:38:52.757Z,103374.84
2023-02-11T09:41:38.918Z,103369.47
2023-02-11T09:44:08.887Z,103373.94
2023-02-11T09:46:37.963Z,103369.47
2023-02-11T09:49:07.551Z,103370.34
2023-02-11T09:51:39.815Z,103375.69
2023-02-11T09:54:13.094Z,103385.47
2023-02-11T09:56:40.974Z,103382.81
2023-02-11T09:59:11.952Z,103385.47
2023-02-11T10:01:41.197Z,103397.94
2023-02-11T10:04:15.413Z,103400.63
2023-02-11T10:06:44.518Z,103404.16
2023-02-11T10:09:25.395Z,103410.41
2023-02-11T10:11:56.735Z,103411.28
2023-02-11T10:14:32.650Z,103405.94
2023-02-11T10:17:05.800Z,103415.72
2023-02-11T10:19:47.661Z,103415.72
2023-02-11T10:22:19.883Z,103426.44
2023-02-11T10:24:51.567Z,103419.31
2023-02-11T10:27:25.841Z,103432.69
2023-02-11T10:29:57.032Z,103428.53
2023-02-11T10:32:32.985Z,103433.75
2023-02-11T10:35:04.790Z,103432.69
2023-02-11T10:37:32.637Z,103445.03
2023-02-11T10:40:00.373Z,103440.56
2023-02-11T10:42:28.388Z,103439.56
2023-02-11T10:44:59.805Z,103442.13
2023-02-11T10:47:29.540Z,103439.56
2023-02-11T10:50:03.290Z,103441.69
2023-02-11T10:52:32.451Z,103449.66
2023-02-11T10:55:02.297Z,103453.13
2023-02-11T10:57:32.126Z,103456.81
2023-02-11T11:00:05.795Z,103452.44
2023-02-11T11:02:35.635Z,103459.47
2023-02-11T11:05:05.588Z,103455.84
2023-02-11T11:07:35.518Z,103452.16
2023-02-11T11:10:04.972Z,103461.00
2023-02-11T11:12:35.116Z,103464.44
2023-02-11T11:15:16.603Z,103463.47
2023-02-11T11:17:44.384Z,103467.03
2023-02-11T11:20:15.970Z,103464.28
2023-02-11T11:22:45.548Z,103460.63
2023-02-11T11:25:27.243Z,103455.22
2023-02-11T11:27:56.933Z,103451.63
2023-02-11T11:30:26.828Z,103457.81
2023-02-11T11:32:55.016Z,103459.56
2023-02-11T11:35:24.938Z,103462.34
2023-02-11T11:38:01.299Z,103457.03
2023-02-11T11:40:30.111Z,103462.34
2023-02-11T11:43:06.294Z,103462.34
2023-02-11T11:45:34.177Z,103447.13
2023-02-11T11:48:05.225Z,103439.94
2023-02-11T11:50:36.138Z,103439.03
2023-02-11T11:53:08.613Z,103433.69
2023-02-11T11:55:39.322Z,103442.56
2023-02-11T11:58:11.775Z,103440.75
2023-02-11T12:00:45.116Z,103442.50
2023-02-11T12:03:27.365Z,103439.81
2023-02-11T12:06:05.380Z,103443.41
2023-02-11T12:08:39.114Z,103439.81
2023-02-11T12:11:13.132Z,103431.78
2023-02-11T12:13:47.157Z,103431.72
2023-02-11T12:16:20.937Z,103435.34
2023-02-11T12:19:15.582Z,103421.94
2023-02-11T12:21:46.627Z,103422.81
2023-02-11T12:24:22.781Z,103421.94
2023-02-11T12:26:54.391Z,103405.88
2023-02-11T12:29:28.127Z,103420.13
2023-02-11T12:32:02.675Z,103421.88
2023-02-11T12:34:39.010Z,103417.47
2023-02-11T12:37:11.677Z,103418.31
2023-02-11T12:39:45.422Z,103424.56
2023-02-11T12:42:46.730Z,103421.88
2023-02-11T12:45:23.039Z,103426.31
2023-02-11T12:47:58.547Z,103420.06
2023-02-11T12:50:31.159Z,103422.72
2023-02-11T12:53:08.414Z,103416.47
2023-02-11T12:55:39.847Z,103427.19
2023-02-11T12:58:13.693Z,103425.38
2023-02-11T13:00:43.847Z,103424.50
2023-02-11T13:03:13.661Z,103422.69
2023-02-11T13:05:44.364Z,103419.13
2023-02-11T13:08:14.072Z,103414.66
2023-02-11T13:10:44.694Z,103419.13
2023-02-11T13:13:17.997Z,103419.09
2023-02-11T13:15:47.858Z,103416.38
2023-02-11T13:18:20.850Z,103424.06
2023-02-11T13:20:52.777Z,103426.44
2023-02-11T13:23:25.784Z,103423.78
2023-02-11T13:26:00.639Z,103413.78
2023-02-11T13:28:36.504Z,103411.09
2023-02-11T13:31:07.769Z,103404.94
2023-02-11T13:33:36.903Z,103400.34
2023-02-11T13:36:24.153Z,103402.88
2023-02-11T13:38:53.508Z,103407.13
2023-02-11T13:41:25.637Z,103402.53
2023-02-11T13:44:01.516Z,103405.09
2023-02-11T13:46:30.540Z,103404.06
2023-02-11T13:48:59.466Z,103403.06
2023-02-11T13:51:38.082Z,103404.75
2023-02-11T13:54:06.960Z,103410.94
2023-02-11T13:56:37.244Z,103402.78
2023-02-11T13:59:30.604Z,103413.50
2023-02-11T14:02:23.250Z,103413.41
2023-02-11T14:05:29.288Z,103412.50
2023-02-11T14:08:30.684Z,103407.97
2023-02-11T14:10:59.729Z,103405.28
2023-02-11T14:13:29.699Z,103414.16
2023-02-11T14:16:10.452Z,103412.34
2023-02-11T14:18:39.158Z,103413.22
2023-02-11T14:21:13.230Z,103415.00
2023-02-11T14:23:41.189Z,103418.56
2023-02-11T14:26:22.737Z,103414.09
2023-02-11T14:28:53.641Z,103414.94
2023-02-11T14:31:25.140Z,103423.88
2023-02-11T14:33:57.955Z,103427.44
2023-02-11T14:36:46.709Z,103429.22
2023-02-11T14:39:20.400Z,103431.00
2023-02-11T14:41:52.112Z,103431.78
2023-02-11T14:44:23.218Z,103422.69
2023-02-11T14:46:52.564Z,103427.06
2023-02-11T14:49:25.839Z,103423.41
2023-02-11T14:51:55.344Z,103425.09
2023-02-11T14:54:25.421Z,103418.75
2023-02-11T14:57:06.597Z,103418.69
2023-02-11T14:59:36.069Z,103425.03
2023-02-11T15:02:03.839Z,103427.59
2023-02-11T15:04:32.813Z,103431.09
2023-02-11T15:07:04.933Z,103433.09
2023-02-11T15:09:38.974Z,103432.59
2023-02-11T15:12:13.656Z,103439.44
2023-02-11T15:14:47.050Z,103444.47
2023-02-11T15:17:17.527Z,103453.03
2023-02-11T15:19:47.353Z,103447.63
2023-02-11T15:22:21.326Z,103445.44
2023-02-11T15:24:58.952Z,103448.91
2023-02-11T15:27:26.730Z,103447.63
2023-02-11T15:29:55.812Z,103453.63
2023-02-11T15:32:24.874Z,103449.81
2023-02-11T15:34:53.595Z,103453.22
2023-02-11T15:37:22.279Z,103452.19
2023-02-11T15:39:50.493Z,103459.16
2023-02-11T15:42:19.362Z,103457.22
2023-02-11T15:44:50.519Z,103460.69
2023-02-11T15:47:23.597Z,103458.78
2023-02-11T15:49:51.527Z,103462.25
2023-02-11T15:52:25.288Z,103454.13
2023-02-11T15:54:54.124Z,103463.81
2023-02-11T15:57:23.045Z,103452.19
2023-02-11T15:59:51.780Z,103458.41
2023-02-11T16:02:20.797Z,103457.41
2023-02-11T16:04:55.040Z,103453.81
2023-02-11T16:07:40.523Z,103451.94
2023-02-11T16:10:17.517Z,103459.06
2023-02-11T16:12:52.137Z,103467.00
2023-02-11T16:15:38.385Z,103468.78
2023-02-11T16:18:14.071Z,103475.84
2023-02-11T16:20:47.506Z,103468.63
2023-02-11T16:23:19.120Z,103471.25
2023-02-11T16:25:46.861Z,103464.06
2023-02-11T16:28:16.329Z,103475.59
2023-02-11T16:30:44.330Z,103471.06
2023-02-11T16:33:12.697Z,103480.88
2023-02-11T16:35:40.484Z,103480.81
2023-02-11T16:38:09.656Z,103485.31
2023-02-11T16:40:37.340Z,103484.41
2023-02-11T16:43:05.105Z,103481.69
2023-02-11T16:45:32.828Z,103490.50
2023-02-11T16:48:02.157Z,103492.19
2023-02-11T16:50:30.035Z,103499.31
2023-02-11T16:52:57.777Z,103500.13
2023-02-11T16:55:26.835Z,103495.59
2023-02-11T16:57:54.652Z,103496.38
2023-02-11T17:00:22.943Z,103504.38
2023-02-11T17:02:50.741Z,103504.31
2023-02-11T17:05:20.021Z,103505.19
2023-02-11T17:07:47.778Z,103501.56
2023-02-11T17:10:15.847Z,103504.19
2023-02-11T17:12:44.929Z,103509.56
2023-02-11T17:15:12.669Z,103506.81
2023-02-11T17:17:40.471Z,103511.31
2023-02-11T17:20:09.441Z,103517.56
2023-02-11T17:22:37.155Z,103524.66
2023-02-11T17:25:04.920Z,103525.56
2023-02-11T17:27:32.707Z,103521.09
2023-02-11T17:30:01.881Z,103531.81
2023-02-11T17:32:29.595Z,103535.41
2023-02-11T17:34:57.361Z,103539.88
2023-02-11T17:37:26.629Z,103543.44
2023-02-11T17:39:54.390Z,103549.66
2023-02-11T17:42:25.184Z,103550.59
2023-02-11T17:44:52.952Z,103539.88
2023-02-11T17:47:22.068Z,103542.56
2023-02-11T17:49:49.818Z,103540.75
2023-02-11T17:52:18.194Z,103537.19
2023-02-11T17:54:46.100Z,103541.69
2023-02-11T17:57:14.270Z,103540.75
2023-02-11T17:59:41.997Z,103542.56
2023-02-11T18:02:11.646Z,103551.50
2023-02-11T18:04:40.956Z,103558.66
2023-02-11T18:07:10.009Z,103550.63
2023-02-11T18:09:41.539Z,103557.78
2023-02-11T18:12:12.348Z,103564.00
2023-02-11T18:14:40.930Z,103561.34
2023-02-11T18:17:08.712Z,103573.81
2023-02-11T18:19:37.661Z,103566.69
2023-02-11T18:22:06.846Z,103569.38
2023-02-11T18:24:34.571Z,103574.75
2023-02-11T18:27:02.288Z,103569.38
2023-02-11T18:29:30.074Z,103571.13
2023-02-11T18:31:58.323Z,103572.88
2023-02-11T18:34:26.179Z,103578.25
2023-02-11T18:36:54.221Z,103587.19
2023-02-11T18:39:24.366Z,103597.03
2023-02-11T18:41:54.616Z,103596.09
2023-02-11T18:44:24.663Z,103596.09
2023-02-11T18:46:52.765Z,103584.47
2023-02-11T18:49:20.870Z,103598.78
2023-02-11T18:51:48.666Z,103594.28
2023-02-11T18:54:16.466Z,103602.34
2023-02-11T18:56:45.635Z,103600.56
2023-02-11T18:59:13.588Z,103608.63
2023-02-11T19:01:43.396Z,103610.38
2023-02-11T19:04:12.534Z,103613.00
2023-02-11T19:06:42.762Z,103621.97
2023-02-11T19:09:11.536Z,103614.81
2023-02-11T19:11:50.268Z,103611.25
2023-02-11T19:14:21.104Z,103619.28
2023-02-11T19:16:50.598Z,103621.97
2023-02-11T19:19:19.069Z,103630.03
2023-02-11T19:21:47.486Z,103627.28
2023-02-11T19:24:18.865Z,103630.03
2023-02-11T19:26:46.979Z,103630.03
2023-02-11T19:29:15.180Z,103634.47
2023-02-11T19:31:44.781Z,103637.22
2023-02-11T19:34:13.393Z,103636.53
2023-02-11T19:36:41.557Z,103639.13
2023-02-11T19:39:09.629Z,103649.75
2023-02-11T19:41:37.891Z,103654.19
2023-02-11T19:44:06.018Z,103651.44
2023-02-11T19:46:38.681Z,103649.63
2023-02-11T19:49:08.481Z,103649.56
2023-02-11T19:51:39.160Z,103654.00
2023-02-11T19:54:08.439Z,103651.28
2023-02-11T19:56:37.858Z,103653.97
2023-02-11T19:59:08.859Z,103653.06
2023-02-11T20:01:37.500Z,103658.38
2023-02-11T20:04:05.311Z,103661.94
2023-02-11T20:06:34.843Z,103656.53
2023-02-11T20:09:03.246Z,103670.81
2023-02-11T20:11:31.753Z,103671.75
2023-02-11T20:13:59.598Z,103672.56
2023-02-11T20:16:46.282Z,103675.25
2023-02-11T20:19:18.153Z,103679.72
2023-02-11T20:21:48.219Z,103678.84
2023-02-11T20:24:16.253Z,103677.94
2023-02-11T20:26:45.215Z,103683.31
2023-02-11T20:29:13.023Z,103682.41
2023-02-11T20:31:40.852Z,103678.84
2023-02-11T20:34:08.672Z,103677.94
2023-02-11T20:36:38.136Z,103688.69
2023-02-11T20:39:07.657Z,103687.78
2023-02-11T20:41:36.401Z,103689.53
2023-02-11T20:44:05.073Z,103686.84
2023-02-11T20:46:33.942Z,103683.28
2023-02-11T20:49:02.161Z,103690.38
2023-02-11T20:51:30.925Z,103686.78
2023-02-11T20:53:58.679Z,103692.13
2023-02-11T20:56:30.843Z,103688.56
2023-02-11T20:58:59.280Z,103696.56
2023-02-11T21:01:28.370Z,103701.91
2023-02-11T21:03:57.206Z,103711.75
2023-02-11T21:06:25.843Z,103709.97
2023-02-11T21:08:54.281Z,103710.84
2023-02-11T21:11:22.337Z,103717.09
2023-02-11T21:13:52.062Z,103721.53
2023-02-11T21:16:21.334Z,103715.31
2023-02-11T21:18:49.621Z,103719.75
2023-02-11T21:21:17.436Z,103720.63
2023-02-11T21:23:45.501Z,103716.16
2023-02-11T21:26:13.571Z,103720.63
2023-02-11T21:28:41.431Z,103716.16
2023-02-11T21:31:10.999Z,103730.44
2023-02-11T21:33:39.163Z,103725.94
2023-02-11T21:36:10.949Z,103731.31
2023-02-11T21:38:38.677Z,103731.31
2023-02-11T21:41:06.672Z,103728.63
2023-02-11T21:43:34.707Z,103725.94
2023-02-11T21:46:02.444Z,103727.72
2023-02-11T21:48:31.505Z,103742.03
2023-02-11T21:50:59.232Z,103735.78
2023-02-11T21:53:26.948Z,103740.22
2023-02-11T21:56:02.610Z,103741.06
2023-02-11T21:58:30.322Z,103741.97
2023-02-11T22:00:58.087Z,103747.34
2023-02-11T22:03:25.840Z,103736.63
2023-02-11T22:05:55.211Z,103732.19
2023-02-11T22:08:23.122Z,103731.31
2023-02-11T22:10:50.864Z,103736.69
2023-02-11T22:13:18.611Z,103734.88
2023-02-11T22:15:46.293Z,103741.19
2023-02-11T22:18:14.015Z,103732.19
2023-02-11T22:20:41.707Z,103734.94
2023-02-11T22:23:10.843Z,103732.25
2023-02-11T22:25:38.580Z,103736.75
2023-02-11T22:28:06.367Z,103742.09
2023-02-11T22:30:34.203Z,103750.16
2023-02-11T22:33:05.694Z,103751.06
2023-02-11T22:35:34.512Z,103759.16
2023-02-11T22:38:02.228Z,103758.22
2023-02-11T22:40:31.366Z,103760.94
2023-02-11T22:42:59.017Z,103748.47
2023-02-11T22:45:26.759Z,103760.94
2023-02-11T22:47:54.490Z,103756.50
2023-02-11T22:50:22.179Z,103760.09
2023-02-11T22:52:49.882Z,103768.13
2023-02-11T22:55:17.750Z,103761.88
2023-02-11T22:57:46.812Z,103764.56
2023-02-11T23:00:15.178Z,103770.81
2023-02-11T23:02:42.981Z,103767.25
2023-02-11T23:05:10.744Z,103765.44
2023-02-11T23:07:38.513Z,103757.41
2023-02-11T23:10:06.739Z,103752.97
2023-02-11T23:12:34.445Z,103759.22
2023-02-11T23:15:05.148Z,103757.44
2023-02-11T23:17:33.045Z,103761.06
2023-02-11T23:20:00.725Z,103770.00
2023-02-11T23:22:28.482Z,103763.75
2023-02-11T23:24:56.245Z,103757.56
2023-02-11T23:27:24.050Z,103754.00
2023-02-11T23:29:51.923Z,103762.06
2023-02-11T23:32:21.088Z,103760.28
2023-02-11T23:34:48.894Z,103763.03
2023-02-11T23:37:16.605Z,103775.53
2023-02-11T23:39:44.334Z,103770.16
2023-02-11T23:42:12.101Z,103782.75
2023-02-11T23:44:39.878Z,103780.97
2023-02-11T23:47:07.629Z,103777.38
2023-02-11T23:49:36.753Z,103772.00
2023-02-11T23:52:04.647Z,103771.13
2023-02-11T23:54:32.326Z,103771.19
2023-02-11T23:57:00.054Z,103772.06
2023-02-11T23:59:27.824Z,103777.47
